San Francisco, CA

6:27 AM PDT on July 07, 2015 (GMT -0700)
North Mission (Valencia and Market) | | Change Station
CLOSE
Current Station
Personal Weather Station
Location: San Francisco, CA
Elevation: 62 ft
Nearby Weather Stations

Elev 62 ft 37.77 °N, 122.42 °W | Updated 21 seconds ago

Overcast
Overcast
63.3 °F
Feels Like 63.3 °F
N
0.0
Wind Variable Wind from NNW
Gusts 4.9 mph

Today
High -- | Low -- °F
--% Chance of Precip.
Yesterday
High -- | Low -- °F
Precip. -- in
5:54 AM 8:34 PM
Waning Gibbous, 65% visible
Pressure 30.03 in
Visibility 10.0 miles
Clouds Few 1000 ft
Mostly Cloudy 1200 ft
Overcast 1600 ft
Dew Point 57 °F
Humidity 85%
Rainfall 0.00 in
Snow Depth Not available.
UV 0 out of 12
Pollen 3.20 out of 12
Air Quality Not available.
Flu Activity Not available.
METAR KSFO 071256Z 26007KT 10SM FEW010 BKN012 OVC016 17/14 A3003 RMK AO2 SLP168 T01720139

More Conditions Fewer Conditions

Pressure 30.03 in
Visibility 10.0 miles
Clouds Few 1000 ft
Mostly Cloudy 1200 ft
Overcast 1600 ft
Dew Point 57 °F
Humidity 85%
Rainfall 0.00 in
Snow Depth Not available.
UV 0 out of 12
Pollen 3.20 out of 12
Air Quality Not available.
Flu Activity Not available.
METAR KSFO 071256Z 26007KT 10SM FEW010 BKN012 OVC016 17/14 A3003 RMK AO2 SLP168 T01720139

More Conditions Fewer Conditions

10-Day Weather Forecast

×

Almanac

Astronomy

Jul. 07, 2015 Rise Set
Actual Time
Civil Twilight
Nautical Twilight
Astronomical Twilight
Moon
Length of Visible Light
Length of Day
Tomorrow will be .
, % of the Moon is Illuminated

Today's Extremes

State Highs State Lows

Community

WunderPhotos

Upload Photos

1,835,792 photos uploaded!

WunderBlogs® & News

Nearby

Air Quality

  Air Quality AQ Index Pollutant
Not available.

Snow Depth

Station Depth Elevation

Earthquake Activity

City Distance Mag. Time & Date
Minimum magnitude displayed is 2.5.

Coastal Water Temperatures

Place Temperature

Stations

Nearby Weather Stations

Station Location Temp. Windchill Dew Point Humidity Wind Precip. Elev Updated Type